This is the latest recevied weather packets stored in our database for station/object KR0L-13. If no packets are shown the sender has not sent any weather packets the latest 10 day(s).
| Time | Temp. | Humidity | Pressure | Rain* | Wind** | Luminosity | Snow |
|---|---|---|---|---|---|---|---|
| 1777730421 | 11.11° C | 49% | 1023 hPa | 0 mm | - | - | - |
| 1777729821 | 10.56° C | 52% | 1022.9 hPa | 0 mm | - | - | - |
| 1777729221 | 10.56° C | 54% | 1022.8 hPa | 0 mm | - | - | - |
| 1777728621 | 10° C | 57% | 1022.8 hPa | 0 mm | - | - | - |
| 1777728021 | 8.89° C | 63% | 1022.8 hPa | 0 mm | - | - | - |
| 1777727421 | 8.33° C | 68% | 1022.7 hPa | 0 mm | - | - | - |
| 1777726821 | 7.78° C | 70% | 1022.6 hPa | 0 mm | - | - | - |
| 1777726221 | 6.67° C | 76% | 1022.4 hPa | 0 mm | - | - | - |
| 1777725621 | 6.11° C | 80% | 1022.1 hPa | 0 mm | - | - | - |
| 1777725021 | 5° C | 81% | 1022.1 hPa | 0 mm | - | - | - |
| 1777724421 | 4.44° C | 81% | 1021.8 hPa | 0 mm | - | - | - |
| 1777723821 | 3.89° C | 81% | 1021.7 hPa | 0 mm | - | - | - |
| 1777723221 | 3.33° C | 82% | 1021.5 hPa | 0 mm | - | - | - |
| 1777722621 | 3.33° C | 82% | 1021.4 hPa | 0 mm | - | - | - |
| 1777722021 | 3.33° C | 80% | 1021.3 hPa | 0 mm | - | - | - |
| 1777721421 | 3.33° C | 81% | 1021.4 hPa | 0 mm | - | - | - |
| 1777720821 | 3.33° C | 80% | 1021.3 hPa | 0 mm | - | - | - |
| 1777720221 | 3.33° C | 80% | 1021.2 hPa | 0 mm | - | - | - |
| 1777719621 | 3.33° C | 81% | 1021.2 hPa | 0 mm | - | - | - |
| 1777719021 | 3.33° C | 82% | 1021.1 hPa | 0 mm | - | - | - |
| 1777718421 | 2.78° C | 84% | 1021 hPa | 0 mm | - | - | - |
| 1777717821 | 2.78° C | 85% | 1021 hPa | 0 mm | - | - | - |
| 1777717221 | 2.78° C | 88% | 1020.9 hPa | 0 mm | - | - | - |
| 1777716621 | 2.78° C | 88% | 1020.7 hPa | 0 mm | - | - | - |
| 1777716021 | 2.78° C | 89% | 1021 hPa | 0 mm | - | - | - |
* Rain latest hour (hover to see other rain measurements)
** Current wind speed in m/s (hover to see current wind gust speed)